createdAt,value
2023-03-06T00:00:16.118Z,95340.28
2023-03-06T00:02:44.480Z,95344.31
2023-03-06T00:05:13.041Z,95341.88
2023-03-06T00:07:41.134Z,95341.09
2023-03-06T00:10:13.326Z,95345.41
2023-03-06T00:12:41.141Z,95347.84
2023-03-06T00:15:09.317Z,95348.09
2023-03-06T00:17:38.339Z,95356.72
2023-03-06T00:20:07.286Z,95355.09
2023-03-06T00:22:35.470Z,95359.94
2023-03-06T00:25:03.007Z,95361.84
2023-03-06T00:27:31.780Z,95352.13
2023-03-06T00:30:01.641Z,95357.53
2023-03-06T00:32:29.489Z,95358.63
2023-03-06T00:34:58.561Z,95371.03
2023-03-06T00:37:26.461Z,95368.31
2023-03-06T00:39:54.225Z,95368.31
2023-03-06T00:42:22.834Z,95371.28
2023-03-06T00:44:52.708Z,95375.34
2023-03-06T00:47:20.302Z,95380.72
2023-03-06T00:49:47.854Z,95374.81
2023-03-06T00:52:17.037Z,95386.13
2023-03-06T00:54:44.593Z,95389.91
2023-03-06T00:57:12.108Z,95388.81
2023-03-06T00:59:39.655Z,95382.34
2023-03-06T01:02:07.687Z,95397.72
2023-03-06T01:04:35.606Z,95404.44
2023-03-06T01:07:03.313Z,95400.97
2023-03-06T01:09:33.003Z,95403.66
2023-03-06T01:12:00.780Z,95400.13
2023-03-06T01:14:28.591Z,95398.53
2023-03-06T01:16:56.141Z,95402.31
2023-03-06T01:19:23.779Z,95409.31
2023-03-06T01:21:51.302Z,95416.31
2023-03-06T01:24:18.895Z,95417.16
2023-03-06T01:26:47.975Z,95421.72
2023-03-06T01:29:15.551Z,95429.81
2023-03-06T01:31:43.308Z,95432.50
2023-03-06T01:34:11.118Z,95433.34
2023-03-06T01:36:38.731Z,95447.63
2023-03-06T01:39:06.322Z,95447.09
2023-03-06T01:41:33.975Z,95449.22
2023-03-06T01:44:03.262Z,95447.63
2023-03-06T01:46:34.398Z,95447.63
2023-03-06T01:49:07.927Z,95459.22
2023-03-06T01:51:39.314Z,95462.72
2023-03-06T01:54:12.029Z,95461.94
2023-03-06T01:56:41.975Z,95468.13
2023-03-06T01:59:11.352Z,95462.72
2023-03-06T02:01:41.372Z,95473.50
2023-03-06T02:04:10.489Z,95469.72
2023-03-06T02:06:40.312Z,95475.13
2023-03-06T02:09:07.848Z,95466.50
2023-03-06T02:11:35.469Z,95479.72
2023-03-06T02:14:03.478Z,95478.13
2023-03-06T02:16:33.829Z,95487.00
2023-03-06T02:19:03.083Z,95489.69
2023-03-06T02:21:34.901Z,95491.88
2023-03-06T02:24:23.861Z,95503.72
2023-03-06T02:26:53.740Z,95501.31
2023-03-06T02:29:25.240Z,95504.28
2023-03-06T02:31:52.740Z,95516.97
2023-03-06T02:34:50.893Z,95511.84
2023-03-06T02:37:18.616Z,95518.31
2023-03-06T02:39:52.354Z,95518.59
2023-03-06T02:42:24.938Z,95521.28
2023-03-06T02:44:55.326Z,95519.66
2023-03-06T02:47:23.195Z,95528.59
2023-03-06T02:49:50.876Z,95537.47
2023-03-06T02:52:18.873Z,95540.44
2023-03-06T02:54:46.453Z,95548.53
2023-03-06T02:57:14.042Z,95548.53
2023-03-06T02:59:43.554Z,95555.56
2023-03-06T03:02:11.470Z,95559.88
2023-03-06T03:04:39.026Z,95553.69
2023-03-06T03:07:07.205Z,95548.53
2023-03-06T03:09:35.730Z,95563.09
2023-03-06T03:12:05.843Z,95566.34
2023-03-06T03:14:34.227Z,95571.75
2023-03-06T03:17:04.685Z,95570.13
2023-03-06T03:19:32.306Z,95576.06
2023-03-06T03:21:59.994Z,95580.09
2023-03-06T03:24:27.754Z,95588.19
2023-03-06T03:26:55.923Z,95591.69
2023-03-06T03:29:24.974Z,95596.00
2023-03-06T03:31:53.981Z,95596.84
2023-03-06T03:34:26.768Z,95611.94
2023-03-06T03:36:54.576Z,95605.72
2023-03-06T03:39:22.829Z,95615.44
2023-03-06T03:41:51.049Z,95623.53
2023-03-06T03:44:19.919Z,95623.00
2023-03-06T03:46:47.563Z,95632.19
2023-03-06T03:49:20.510Z,95634.63
2023-03-06T03:51:50.472Z,95642.16
2023-03-06T03:54:19.157Z,95646.75
2023-03-06T03:56:48.569Z,95647.28
2023-03-06T03:59:22.665Z,95652.16
2023-03-06T04:02:28.883Z,95663.47
2023-03-06T04:05:05.474Z,95663.47
2023-03-06T04:07:34.621Z,95671.56
2023-03-06T04:10:02.706Z,95669.13
2023-03-06T04:12:31.236Z,95670.22
2023-03-06T04:14:59.348Z,95675.34
2023-03-06T04:17:27.018Z,95668.34
2023-03-06T04:19:55.876Z,95672.91
2023-03-06T04:22:23.779Z,95675.34
2023-03-06T04:24:53.662Z,95673.19
2023-03-06T04:27:21.859Z,95677.22
2023-03-06T04:29:49.891Z,95679.13
2023-03-06T04:32:19.731Z,95678.03
2023-03-06T04:34:48.913Z,95678.03
2023-03-06T04:37:20.544Z,95679.13
2023-03-06T04:39:48.132Z,95690.72
2023-03-06T04:42:17.595Z,95693.16
2023-03-06T04:44:45.357Z,95700.72
2023-03-06T04:47:13.557Z,95696.94
2023-03-06T04:49:41.064Z,95705.56
2023-03-06T04:52:08.964Z,95704.75
2023-03-06T04:54:36.500Z,95703.41
2023-03-06T04:57:04.179Z,95716.34
2023-03-06T04:59:33.212Z,95720.66
2023-03-06T05:02:00.802Z,95723.31
2023-03-06T05:04:28.412Z,95724.25
2023-03-06T05:06:55.983Z,95732.03
2023-03-06T05:09:23.620Z,95743.38
2023-03-06T05:11:51.189Z,95750.28
2023-03-06T05:14:18.795Z,95743.47
2023-03-06T05:16:48.020Z,95743.84
2023-03-06T05:19:15.851Z,95751.81
2023-03-06T05:21:43.480Z,95758.03
2023-03-06T05:24:11.293Z,95763.44
2023-03-06T05:26:38.965Z,95770.41
2023-03-06T05:29:07.685Z,95771.44
2023-03-06T05:31:35.465Z,95774.53
2023-03-06T05:34:04.580Z,95771.06
2023-03-06T05:36:32.108Z,95774.97
2023-03-06T05:38:59.680Z,95781.72
2023-03-06T05:41:27.227Z,95775.97
2023-03-06T05:43:54.774Z,95784.19
2023-03-06T05:46:22.321Z,95791.28
2023-03-06T05:48:50.181Z,95796.56
2023-03-06T05:51:19.570Z,95799.13
2023-03-06T05:53:47.537Z,95808.88
2023-03-06T05:56:15.067Z,95807.84
2023-03-06T05:58:42.820Z,95810.78
2023-03-06T06:01:12.095Z,95817.59
2023-03-06T06:03:39.787Z,95818.66
2023-03-06T06:06:09.045Z,95828.38
2023-03-06T06:08:38.599Z,95840.25
2023-03-06T06:11:07.784Z,95839.72
2023-03-06T06:13:35.824Z,95832.22
2023-03-06T06:16:07.840Z,95846.28
2023-03-06T06:18:35.898Z,95848.44
2023-03-06T06:21:06.347Z,95856.53
2023-03-06T06:23:33.897Z,95850.84
2023-03-06T06:26:04.938Z,95864.06
2023-03-06T06:28:32.857Z,95861.09
2023-03-06T06:31:01.151Z,95858.16
2023-03-06T06:33:28.786Z,95869.47
2023-03-06T06:35:56.377Z,95876.78
2023-03-06T06:38:24.030Z,95875.41
2023-03-06T06:41:26.870Z,95883.50
2023-03-06T06:43:40.575Z,95895.91
2023-03-06T06:46:36.533Z,95889.97
2023-03-06T06:48:55.905Z,95908.09
2023-03-06T06:51:23.726Z,95904.97
2023-03-06T06:53:52.797Z,95912.50
2023-03-06T06:56:20.376Z,95923.81
2023-03-06T06:58:51.592Z,95924.66
2023-03-06T07:01:19.276Z,95927.72
2023-03-06T07:03:46.927Z,95931.66
2023-03-06T07:06:14.821Z,95934.88
2023-03-06T07:08:42.517Z,95937.56
2023-03-06T07:11:14.323Z,95940.53
2023-03-06T07:13:42.023Z,95945.72
2023-03-06T07:16:11.165Z,95939.19
2023-03-06T07:18:38.769Z,95949.41
2023-03-06T07:21:06.938Z,95949.41
2023-03-06T07:23:34.469Z,95939.16
2023-03-06T07:26:02.434Z,95949.50
2023-03-06T07:28:35.581Z,95956.22
2023-03-06T07:31:11.140Z,95951.38
2023-03-06T07:33:39.216Z,95960.25
2023-03-06T07:36:11.346Z,95958.41
2023-03-06T07:38:40.374Z,95961.63
2023-03-06T07:41:08.076Z,95961.13
2023-03-06T07:43:35.689Z,95966.00
2023-03-06T07:46:07.732Z,95971.97
2023-03-06T07:48:37.337Z,95972.28
2023-03-06T07:51:07.367Z,95966.81
2023-03-06T07:53:35.480Z,95974.06
2023-03-06T07:56:04.633Z,95977.53
2023-03-06T07:58:32.165Z,95976.47
2023-03-06T08:01:04.341Z,95986.19
2023-03-06T08:03:31.929Z,95987.81
2023-03-06T08:06:08.201Z,95989.09
2023-03-06T08:08:36.274Z,95988.56
2023-03-06T08:11:04.178Z,95991.78
2023-03-06T08:13:31.933Z,95997.47
2023-03-06T08:15:59.584Z,96000.72
2023-03-06T08:18:27.350Z,95996.25
2023-03-06T08:21:02.930Z,96002.63
2023-03-06T08:23:32.409Z,96001.31
2023-03-06T08:26:00.509Z,96006.78
2023-03-06T08:28:28.269Z,96011.44
2023-03-06T08:30:55.797Z,96017.16
2023-03-06T08:33:23.928Z,96020.97
2023-03-06T08:35:52.773Z,96025.09
2023-03-06T08:38:20.534Z,96029.47
2023-03-06T08:40:49.950Z,96029.66
2023-03-06T08:43:17.586Z,96038.53
2023-03-06T08:45:45.225Z,96040.94
2023-03-06T08:48:12.811Z,96040.66
2023-03-06T08:50:41.574Z,96052.56
2023-03-06T08:53:09.288Z,96053.25
2023-03-06T08:55:37.634Z,96064.19
2023-03-06T08:58:06.793Z,96056.06
2023-03-06T09:00:34.461Z,96059.28
2023-03-06T09:03:02.992Z,96068.22
2023-03-06T09:05:30.765Z,96072.78
2023-03-06T09:07:58.365Z,96093.28
2023-03-06T09:10:26.501Z,96099.75
2023-03-06T09:12:55.228Z,96092.50
2023-03-06T09:15:25.141Z,96093.53
2023-03-06T09:17:52.423Z,96097.28
2023-03-06T09:20:20.723Z,96098.38
2023-03-06T09:22:48.630Z,96100.53
2023-03-06T09:25:16.246Z,96101.75
2023-03-06T09:27:43.881Z,96111.16
2023-03-06T09:30:12.628Z,96114.94
2023-03-06T09:32:41.857Z,96123.81
2023-03-06T09:35:10.634Z,96117.88
2023-03-06T09:37:38.207Z,96119.47
2023-03-06T09:40:06.712Z,96134.00
2023-03-06T09:42:36.088Z,96142.72
2023-03-06T09:45:06.286Z,96156.19
2023-03-06T09:47:45.089Z,96153.72
2023-03-06T09:50:24.341Z,96152.63
2023-03-06T09:53:05.430Z,96155.28
2023-03-06T09:55:37.685Z,96162.59
2023-03-06T09:58:13.574Z,96169.69
2023-03-06T10:00:47.451Z,96174.31
2023-03-06T10:03:26.671Z,96190.94
2023-03-06T10:06:00.942Z,96194.25
2023-03-06T10:08:39.973Z,96201.38
2023-03-06T10:11:10.809Z,96206.00
2023-03-06T10:13:41.716Z,96205.91
2023-03-06T10:16:23.777Z,96215.03
2023-03-06T10:18:53.771Z,96221.13
2023-03-06T10:21:33.620Z,96233.56
2023-03-06T10:24:11.161Z,96230.19
2023-03-06T10:26:45.095Z,96232.28
2023-03-06T10:29:33.423Z,96243.00
2023-03-06T10:32:11.167Z,96243.09
2023-03-06T10:34:42.779Z,96248.25
2023-03-06T10:37:18.793Z,96253.66
2023-03-06T10:39:46.988Z,96269.53
2023-03-06T10:42:14.653Z,96266.06
2023-03-06T10:44:42.217Z,96279.84
2023-03-06T10:47:28.297Z,96282.41
2023-03-06T10:50:02.175Z,96289.31
2023-03-06T10:52:32.515Z,96290.88
2023-03-06T10:55:25.117Z,96294.31
2023-03-06T10:57:52.817Z,96295.88
2023-03-06T11:00:31.189Z,96302.00
2023-03-06T11:03:23.871Z,96298.44
2023-03-06T11:06:12.169Z,96312.69
2023-03-06T11:08:41.304Z,96310.91
2023-03-06T11:11:12.972Z,96312.28
2023-03-06T11:13:43.119Z,96319.19
2023-03-06T11:16:18.937Z,96321.31
2023-03-06T11:18:57.634Z,96318.84
2023-03-06T11:21:31.099Z,96323.28
2023-03-06T11:24:05.780Z,96333.31
2023-03-06T11:26:40.812Z,96342.59
2023-03-06T11:29:26.868Z,96342.88
2023-03-06T11:31:59.423Z,96341.19
2023-03-06T11:34:38.109Z,96347.06
2023-03-06T11:37:15.532Z,96352.44
2023-03-06T11:39:46.775Z,96345.44
2023-03-06T11:42:21.910Z,96358.91
2023-03-06T11:45:02.845Z,96357.53
2023-03-06T11:47:35.317Z,96370.47
2023-03-06T11:50:17.908Z,96377.00
2023-03-06T11:52:51.622Z,96376.34
2023-03-06T11:55:32.921Z,96375.41
2023-03-06T11:58:24.736Z,96384.16
2023-03-06T12:00:57.318Z,96381.63
2023-03-06T12:03:49.005Z,96398.69
2023-03-06T12:06:28.320Z,96397.66
2023-03-06T12:09:09.699Z,96407.91
2023-03-06T12:11:45.710Z,96413.47
2023-03-06T12:14:32.858Z,96408.75
2023-03-06T12:17:14.859Z,96409.22
2023-03-06T12:20:17.719Z,96412.44
2023-03-06T12:22:57.793Z,96423.34
2023-03-06T12:25:36.812Z,96420.34
2023-03-06T12:28:31.478Z,96432.97
2023-03-06T12:31:17.850Z,96427.66
2023-03-06T12:33:53.599Z,96437.22
2023-03-06T12:36:39.057Z,96435.06
2023-03-06T12:39:24.554Z,96440.31
2023-03-06T12:42:04.865Z,96444.84
2023-03-06T12:45:17.004Z,96459.16
2023-03-06T12:47:47.700Z,96459.28
2023-03-06T12:50:22.424Z,96470.78
2023-03-06T12:52:51.095Z,96474.09
2023-03-06T12:55:23.732Z,96478.25
2023-03-06T12:57:54.170Z,96482.22
2023-03-06T13:00:58.769Z,96481.91
2023-03-06T13:03:52.101Z,96485.50
2023-03-06T13:06:39.222Z,96490.63
2023-03-06T13:09:24.311Z,96486.59
2023-03-06T13:12:15.648Z,96497.91
2023-03-06T13:14:59.732Z,96499.41
2023-03-06T13:17:34.742Z,96505.91
2023-03-06T13:20:27.116Z,96505.69
2023-03-06T13:22:54.892Z,96509.66
2023-03-06T13:25:36.626Z,96523.72
2023-03-06T13:28:05.388Z,96512.84
2023-03-06T13:30:45.709Z,96524.47
2023-03-06T13:33:49.578Z,96534.13
2023-03-06T13:36:24.245Z,96539.53
2023-03-06T13:38:57.262Z,96543.31
2023-03-06T13:41:44.198Z,96543.75
2023-03-06T13:44:48.111Z,96549.28
2023-03-06T13:48:02.807Z,96560.84
2023-03-06T13:50:39.128Z,96560.78
2023-03-06T13:53:48.633Z,96570.75
2023-03-06T13:56:33.591Z,96576.84
2023-03-06T13:59:22.661Z,96583.25
2023-03-06T14:02:02.229Z,96587.41
2023-03-06T14:04:38.561Z,96591.75
2023-03-06T14:07:23.019Z,96592.19
2023-03-06T14:10:01.253Z,96601.38
2023-03-06T14:12:33.206Z,96596.22
2023-03-06T14:15:04.835Z,96613.41
2023-03-06T14:17:34.546Z,96610.78
2023-03-06T14:20:04.481Z,96614.34
2023-03-06T14:22:32.159Z,96610.78
2023-03-06T14:25:03.882Z,96607.88
2023-03-06T14:27:44.495Z,96615.56
2023-03-06T14:30:16.441Z,96612.09
2023-03-06T14:32:44.464Z,96619.00
2023-03-06T14:35:26.801Z,96615.47
2023-03-06T14:37:57.736Z,96616.84
2023-03-06T14:40:30.197Z,96624.47
2023-03-06T14:43:11.793Z,96632.81
2023-03-06T14:45:49.431Z,96635.25
2023-03-06T14:48:17.230Z,96637.94
2023-03-06T14:50:51.155Z,96637.38
2023-03-06T14:53:23.407Z,96645.50
2023-03-06T14:55:53.384Z,96634.72
2023-03-06T14:58:28.996Z,96645.09
2023-03-06T15:00:59.434Z,96644.03
2023-03-06T15:03:34.546Z,96641.19
2023-03-06T15:06:05.084Z,96653.09
2023-03-06T15:08:36.371Z,96656.13
2023-03-06T15:11:05.790Z,96654.50
2023-03-06T15:13:34.549Z,96658.84
2023-03-06T15:16:03.654Z,96663.16
2023-03-06T15:18:33.134Z,96656.97
2023-03-06T15:21:10.969Z,96669.41
2023-03-06T15:23:40.460Z,96675.03
2023-03-06T15:26:29.249Z,96676.66
2023-03-06T15:29:22.211Z,96676.66
2023-03-06T15:31:50.166Z,96666.69
2023-03-06T15:34:20.606Z,96671.25
2023-03-06T15:36:52.569Z,96675.59
2023-03-06T15:39:34.950Z,96678.56
2023-03-06T15:42:13.539Z,96682.06
2023-03-06T15:44:41.291Z,96684.75
2023-03-06T15:47:10.938Z,96683.13
2023-03-06T15:49:38.761Z,96691.22
2023-03-06T15:52:08.207Z,96695.56
2023-03-06T15:54:36.449Z,96698.50
2023-03-06T15:57:05.695Z,96699.31
2023-03-06T15:59:41.568Z,96704.72
2023-03-06T16:02:15.704Z,96710.34
2023-03-06T16:04:43.638Z,96714.94
2023-03-06T16:07:12.742Z,96724.69
2023-03-06T16:09:41.276Z,96724.91
2023-03-06T16:12:15.606Z,96728.44
2023-03-06T16:14:43.825Z,96740.31
2023-03-06T16:17:12.582Z,96732.94
2023-03-06T16:19:40.466Z,96731.38
2023-03-06T16:22:08.487Z,96739.03
2023-03-06T16:24:37.621Z,96737.97
2023-03-06T16:27:05.649Z,96741.31
2023-03-06T16:29:33.291Z,96738.38
2023-03-06T16:32:01.871Z,96742.03
2023-03-06T16:34:29.754Z,96740.41
2023-03-06T16:36:57.832Z,96747.34
2023-03-06T16:39:25.451Z,96749.47
2023-03-06T16:41:55.864Z,96747.47
2023-03-06T16:44:23.571Z,96752.16
2023-03-06T16:46:51.360Z,96748.78
2023-03-06T16:49:20.658Z,96754.50
2023-03-06T16:51:48.547Z,96769.75
2023-03-06T16:54:16.233Z,96767.72
2023-03-06T16:56:44.362Z,96770.63
2023-03-06T16:59:13.644Z,96766.91
2023-03-06T17:01:42.249Z,96774.56
2023-03-06T17:04:09.925Z,96779.69
2023-03-06T17:06:38.024Z,96779.69
2023-03-06T17:09:05.882Z,96783.22
2023-03-06T17:11:33.491Z,96776.19
2023-03-06T17:14:01.857Z,96781.59
2023-03-06T17:16:30.954Z,96782.38
2023-03-06T17:18:58.619Z,96795.66
2023-03-06T17:21:26.248Z,96796.72
2023-03-06T17:23:53.950Z,96797.78
2023-03-06T17:26:21.710Z,96808.06
2023-03-06T17:28:49.719Z,96807.50
2023-03-06T17:31:18.675Z,96811.03
2023-03-06T17:33:48.189Z,96810.78
2023-03-06T17:36:15.999Z,96817.25
2023-03-06T17:38:44.029Z,96817.25
2023-03-06T17:41:12.867Z,96818.31
2023-03-06T17:43:41.271Z,96817.47
2023-03-06T17:46:10.971Z,96823.69
2023-03-06T17:48:38.614Z,96826.41
2023-03-06T17:51:07.942Z,96829.09
2023-03-06T17:53:36.225Z,96841.75
2023-03-06T17:56:04.485Z,96839.06
2023-03-06T17:58:32.290Z,96850.44
2023-03-06T18:01:00.195Z,96856.66
2023-03-06T18:03:27.804Z,96853.94
2023-03-06T18:05:59.844Z,96855.84
2023-03-06T18:08:28.883Z,96853.94
2023-03-06T18:10:59.661Z,96863.94
2023-03-06T18:13:27.195Z,96862.06
2023-03-06T18:15:54.886Z,96863.69
2023-03-06T18:18:22.642Z,96874.47
2023-03-06T18:20:51.830Z,96870.16
2023-03-06T18:23:19.586Z,96873.41
2023-03-06T18:25:48.773Z,96877.78
2023-03-06T18:28:16.458Z,96870.72
2023-03-06T18:30:44.098Z,96878.00
2023-03-06T18:33:11.714Z,96877.19
2023-03-06T18:35:39.347Z,96877.78
2023-03-06T18:38:06.923Z,96888.56
2023-03-06T18:40:34.589Z,96894.78
2023-03-06T18:43:06.389Z,96887.75
2023-03-06T18:45:33.956Z,96889.53
2023-03-06T18:48:01.588Z,96881.66
2023-03-06T18:50:29.201Z,96884.03
2023-03-06T18:52:56.773Z,96888.16
2023-03-06T18:55:24.886Z,96891.09
2023-03-06T18:57:52.477Z,96890.28
2023-03-06T19:00:22.718Z,96896.59
2023-03-06T19:02:50.291Z,96895.47
2023-03-06T19:05:17.951Z,96901.00
2023-03-06T19:07:45.650Z,96905.31
2023-03-06T19:10:13.506Z,96905.56
2023-03-06T19:12:41.084Z,96912.25
2023-03-06T19:15:09.691Z,96904.03
2023-03-06T19:17:39.217Z,96907.53
2023-03-06T19:20:07.863Z,96911.66
2023-03-06T19:22:35.559Z,96914.25
2023-03-06T19:25:03.990Z,96917.38
2023-03-06T19:27:32.120Z,96918.53
2023-03-06T19:29:59.730Z,96916.44
2023-03-06T19:32:30.310Z,96923.84
2023-03-06T19:34:59.367Z,96932.00
2023-03-06T19:37:26.940Z,96921.00
2023-03-06T19:39:55.129Z,96922.63
2023-03-06T19:42:22.727Z,96926.13
2023-03-06T19:44:50.376Z,96930.25
2023-03-06T19:47:17.920Z,96918.28
2023-03-06T19:49:46.036Z,96922.41
2023-03-06T19:52:15.387Z,96917.56
2023-03-06T19:54:42.993Z,96917.81
2023-03-06T19:57:10.613Z,96919.22
2023-03-06T19:59:38.292Z,96925.91
2023-03-06T20:02:06.077Z,96930.25
2023-03-06T20:04:34.048Z,96917.81
2023-03-06T20:07:01.639Z,96920.72
2023-03-06T20:09:31.195Z,96925.91
2023-03-06T20:11:58.879Z,96934.81
2023-03-06T20:14:26.785Z,96936.47
2023-03-06T20:16:54.284Z,96944.56
2023-03-06T20:19:21.891Z,96941.88
2023-03-06T20:21:49.416Z,96945.63
2023-03-06T20:24:17.373Z,96953.72
2023-03-06T20:26:47.259Z,96955.34
2023-03-06T20:29:15.269Z,96961.81
2023-03-06T20:31:42.878Z,96966.16
2023-03-06T20:34:11.418Z,96963.91
2023-03-06T20:36:39.877Z,96959.13
2023-03-06T20:39:11.405Z,96961.81
2023-03-06T20:41:39.602Z,96973.41
2023-03-06T20:44:14.546Z,96975.31
2023-03-06T20:46:42.417Z,96973.66
2023-03-06T20:49:11.349Z,96978.00
2023-03-06T20:51:39.978Z,96976.94
2023-03-06T20:54:09.149Z,96972.84
2023-03-06T20:56:37.287Z,96970.97
2023-03-06T20:59:05.006Z,96972.59
2023-03-06T21:01:35.917Z,96976.38
2023-03-06T21:04:04.164Z,96980.94
2023-03-06T21:06:32.452Z,96982.34
2023-03-06T21:09:00.930Z,96986.09
2023-03-06T21:11:28.975Z,96981.16
2023-03-06T21:13:57.034Z,96979.06
2023-03-06T21:16:25.964Z,96979.06
2023-03-06T21:18:56.896Z,96987.16
2023-03-06T21:21:29.098Z,96986.09
2023-03-06T21:23:56.610Z,96986.69
2023-03-06T21:26:26.710Z,96990.44
2023-03-06T21:28:54.589Z,96993.38
2023-03-06T21:31:22.843Z,96998.75
2023-03-06T21:33:51.552Z,96995.84
2023-03-06T21:36:21.105Z,96996.91
2023-03-06T21:38:50.056Z,96990.44
2023-03-06T21:41:19.260Z,96993.13
2023-03-06T21:43:47.284Z,96991.59
2023-03-06T21:46:14.833Z,97000.53
2023-03-06T21:48:43.124Z,97008.03
2023-03-06T21:51:12.470Z,97006.50
2023-03-06T21:53:44.147Z,97019.91
2023-03-06T21:56:12.915Z,97021.66
2023-03-06T21:58:40.656Z,97023.88
2023-03-06T22:01:11.715Z,97018.03
2023-03-06T22:03:39.647Z,97016.13
2023-03-06T22:06:08.955Z,97022.22
2023-03-06T22:08:36.686Z,97020.59
2023-03-06T22:11:11.201Z,97020.22
2023-03-06T22:13:38.933Z,97026.66
2023-03-06T22:16:07.399Z,97022.53
2023-03-06T22:18:35.159Z,97023.84
2023-03-06T22:21:07.854Z,97020.81
2023-03-06T22:23:35.915Z,97019.28
2023-03-06T22:26:04.633Z,97014.13
2023-03-06T22:28:34.087Z,97015.53
2023-03-06T22:31:09.179Z,97012.34
2023-03-06T22:33:37.264Z,97005.53
2023-03-06T22:36:07.533Z,97002.63
2023-03-06T22:38:37.256Z,97011.31
2023-03-06T22:41:04.948Z,97006.31
2023-03-06T22:43:34.894Z,97010.75
2023-03-06T22:46:02.874Z,97007.47
2023-03-06T22:48:30.619Z,97002.66
2023-03-06T22:51:02.581Z,96998.66
2023-03-06T22:53:30.118Z,96992.22
2023-03-06T22:55:58.969Z,96988.69
2023-03-06T22:58:27.171Z,96986.34
2023-03-06T23:00:56.209Z,96984.47
2023-03-06T23:03:23.796Z,96978.81
2023-03-06T23:05:51.371Z,96973.91
2023-03-06T23:08:19.344Z,96989.63
2023-03-06T23:10:46.885Z,96987.97
2023-03-06T23:13:32.990Z,96995.25
2023-03-06T23:16:20.695Z,96992.09
2023-03-06T23:19:07.431Z,96994.78
2023-03-06T23:21:53.533Z,96989.03
2023-03-06T23:24:39.377Z,96987.75
2023-03-06T23:27:07.204Z,96984.34
2023-03-06T23:29:34.742Z,96982.34
2023-03-06T23:32:04.230Z,96981.06
2023-03-06T23:34:32.323Z,96967.44
2023-03-06T23:36:59.866Z,96973.44
2023-03-06T23:39:27.836Z,96967.81
2023-03-06T23:41:55.517Z,96967.56
2023-03-06T23:44:24.466Z,96966.75
2023-03-06T23:46:53.104Z,96963.69
2023-03-06T23:49:22.112Z,96957.84
2023-03-06T23:51:49.749Z,96957.84
2023-03-06T23:54:17.784Z,96959.47
2023-03-06T23:56:45.398Z,96957.84
2023-03-06T23:59:13.132Z,96943.75
